sensor_id;sensor_type;location;lat;lon;timestamp;P1;durP1;ratioP1;P2;durP2;ratioP2
1479;SDS011;732;51.698;4.886;2023-05-07T00:00:29;35.03;;;28.13;;
1479;SDS011;732;51.698;4.886;2023-05-07T00:02:58;34.47;;;27.70;;
1479;SDS011;732;51.698;4.886;2023-05-07T00:05:31;38.37;;;28.93;;
1479;SDS011;732;51.698;4.886;2023-05-07T00:07:59;41.20;;;28.63;;
1479;SDS011;732;51.698;4.886;2023-05-07T00:10:35;30.70;;;27.10;;
1479;SDS011;732;51.698;4.886;2023-05-07T00:13:03;37.20;;;27.67;;
1479;SDS011;732;51.698;4.886;2023-05-07T00:15:34;29.40;;;24.20;;
1479;SDS011;732;51.698;4.886;2023-05-07T00:18:07;32.67;;;26.30;;
1479;SDS011;732;51.698;4.886;2023-05-07T00:20:39;33.50;;;26.30;;
1479;SDS011;732;51.698;4.886;2023-05-07T00:23:09;30.27;;;23.07;;
1479;SDS011;732;51.698;4.886;2023-05-07T00:25:37;34.83;;;27.30;;
1479;SDS011;732;51.698;4.886;2023-05-07T00:28:13;35.47;;;26.87;;
1479;SDS011;732;51.698;4.886;2023-05-07T00:30:53;36.40;;;28.80;;
1479;SDS011;732;51.698;4.886;2023-05-07T00:33:23;31.80;;;27.60;;
1479;SDS011;732;51.698;4.886;2023-05-07T00:35:54;30.07;;;23.57;;
1479;SDS011;732;51.698;4.886;2023-05-07T00:38:26;30.53;;;25.40;;
1479;SDS011;732;51.698;4.886;2023-05-07T00:40:54;33.70;;;25.27;;
1479;SDS011;732;51.698;4.886;2023-05-07T00:43:27;32.50;;;24.30;;
1479;SDS011;732;51.698;4.886;2023-05-07T00:45:55;29.23;;;24.10;;
1479;SDS011;732;51.698;4.886;2023-05-07T00:48:34;25.20;;;21.53;;
1479;SDS011;732;51.698;4.886;2023-05-07T00:51:04;34.27;;;21.83;;
1479;SDS011;732;51.698;4.886;2023-05-07T00:53:35;31.30;;;25.07;;
1479;SDS011;732;51.698;4.886;2023-05-07T00:56:04;28.00;;;22.43;;
1479;SDS011;732;51.698;4.886;2023-05-07T00:58:35;24.07;;;19.60;;
1479;SDS011;732;51.698;4.886;2023-05-07T01:01:03;23.20;;;20.07;;
1479;SDS011;732;51.698;4.886;2023-05-07T01:03:33;20.27;;;17.03;;
1479;SDS011;732;51.698;4.886;2023-05-07T01:06:07;23.57;;;20.20;;
1479;SDS011;732;51.698;4.886;2023-05-07T01:08:41;21.83;;;17.10;;
1479;SDS011;732;51.698;4.886;2023-05-07T01:11:13;19.60;;;17.60;;
1479;SDS011;732;51.698;4.886;2023-05-07T01:13:45;22.60;;;19.77;;
1479;SDS011;732;51.698;4.886;2023-05-07T01:16:14;26.83;;;21.13;;
1479;SDS011;732;51.698;4.886;2023-05-07T01:18:42;21.87;;;17.40;;
1479;SDS011;732;51.698;4.886;2023-05-07T01:21:11;22.07;;;19.23;;
1479;SDS011;732;51.698;4.886;2023-05-07T01:23:46;21.07;;;17.20;;
1479;SDS011;732;51.698;4.886;2023-05-07T01:26:15;25.50;;;20.60;;
1479;SDS011;732;51.698;4.886;2023-05-07T01:28:46;19.40;;;15.47;;
1479;SDS011;732;51.698;4.886;2023-05-07T01:31:14;22.60;;;18.90;;
1479;SDS011;732;51.698;4.886;2023-05-07T01:33:44;23.70;;;18.10;;
1479;SDS011;732;51.698;4.886;2023-05-07T01:36:13;19.83;;;17.00;;
1479;SDS011;732;51.698;4.886;2023-05-07T01:38:47;19.50;;;17.20;;
1479;SDS011;732;51.698;4.886;2023-05-07T01:41:16;21.50;;;18.93;;
1479;SDS011;732;51.698;4.886;2023-05-07T01:43:46;19.60;;;17.03;;
1479;SDS011;732;51.698;4.886;2023-05-07T01:46:16;19.37;;;17.30;;
1479;SDS011;732;51.698;4.886;2023-05-07T01:48:46;20.90;;;18.70;;
1479;SDS011;732;51.698;4.886;2023-05-07T01:51:14;25.87;;;21.17;;
1479;SDS011;732;51.698;4.886;2023-05-07T01:53:43;19.23;;;17.23;;
1479;SDS011;732;51.698;4.886;2023-05-07T01:56:15;17.53;;;15.77;;
1479;SDS011;732;51.698;4.886;2023-05-07T01:58:44;19.27;;;17.37;;
1479;SDS011;732;51.698;4.886;2023-05-07T02:01:13;19.47;;;16.80;;
1479;SDS011;732;51.698;4.886;2023-05-07T02:03:42;20.90;;;18.70;;
1479;SDS011;732;51.698;4.886;2023-05-07T02:06:18;24.13;;;20.30;;
1479;SDS011;732;51.698;4.886;2023-05-07T02:08:47;27.63;;;18.63;;
1479;SDS011;732;51.698;4.886;2023-05-07T02:11:17;25.40;;;20.63;;
1479;SDS011;732;51.698;4.886;2023-05-07T02:13:45;28.97;;;23.83;;
1479;SDS011;732;51.698;4.886;2023-05-07T02:16:14;26.30;;;23.27;;
1479;SDS011;732;51.698;4.886;2023-05-07T02:18:42;30.13;;;25.30;;
1479;SDS011;732;51.698;4.886;2023-05-07T02:21:10;23.60;;;20.73;;
1479;SDS011;732;51.698;4.886;2023-05-07T02:23:39;21.63;;;19.33;;
1479;SDS011;732;51.698;4.886;2023-05-07T02:26:10;28.77;;;20.30;;
1479;SDS011;732;51.698;4.886;2023-05-07T02:28:40;22.10;;;19.10;;
1479;SDS011;732;51.698;4.886;2023-05-07T02:31:08;22.50;;;19.53;;
1479;SDS011;732;51.698;4.886;2023-05-07T02:33:37;25.90;;;20.73;;
1479;SDS011;732;51.698;4.886;2023-05-07T02:36:08;32.43;;;22.20;;
1479;SDS011;732;51.698;4.886;2023-05-07T02:38:44;26.93;;;21.10;;
1479;SDS011;732;51.698;4.886;2023-05-07T02:41:12;25.97;;;20.30;;
1479;SDS011;732;51.698;4.886;2023-05-07T02:43:42;23.83;;;19.60;;
1479;SDS011;732;51.698;4.886;2023-05-07T02:46:11;23.03;;;20.43;;
1479;SDS011;732;51.698;4.886;2023-05-07T02:48:46;28.43;;;21.70;;
1479;SDS011;732;51.698;4.886;2023-05-07T02:51:14;22.33;;;19.97;;
1479;SDS011;732;51.698;4.886;2023-05-07T02:53:45;27.87;;;22.83;;
1479;SDS011;732;51.698;4.886;2023-05-07T02:56:14;30.50;;;24.03;;
1479;SDS011;732;51.698;4.886;2023-05-07T02:58:44;23.63;;;20.83;;
1479;SDS011;732;51.698;4.886;2023-05-07T03:01:13;22.23;;;19.50;;
1479;SDS011;732;51.698;4.886;2023-05-07T03:04:00;22.53;;;19.20;;
1479;SDS011;732;51.698;4.886;2023-05-07T03:06:29;25.80;;;22.73;;
1479;SDS011;732;51.698;4.886;2023-05-07T03:08:57;25.30;;;21.13;;
1479;SDS011;732;51.698;4.886;2023-05-07T03:11:28;34.47;;;26.90;;
1479;SDS011;732;51.698;4.886;2023-05-07T03:13:58;27.33;;;21.53;;
1479;SDS011;732;51.698;4.886;2023-05-07T03:16:30;31.17;;;24.37;;
1479;SDS011;732;51.698;4.886;2023-05-07T03:18:58;28.57;;;20.80;;
1479;SDS011;732;51.698;4.886;2023-05-07T03:21:28;27.13;;;22.07;;
1479;SDS011;732;51.698;4.886;2023-05-07T03:24:00;30.17;;;23.53;;
1479;SDS011;732;51.698;4.886;2023-05-07T03:26:29;33.03;;;23.60;;
1479;SDS011;732;51.698;4.886;2023-05-07T03:28:58;27.37;;;22.50;;
1479;SDS011;732;51.698;4.886;2023-05-07T03:31:29;30.20;;;23.00;;
1479;SDS011;732;51.698;4.886;2023-05-07T03:33:59;31.93;;;24.67;;
1479;SDS011;732;51.698;4.886;2023-05-07T03:36:31;34.77;;;27.00;;
1479;SDS011;732;51.698;4.886;2023-05-07T03:39:04;25.80;;;22.53;;
1479;SDS011;732;51.698;4.886;2023-05-07T03:41:38;28.30;;;23.90;;
1479;SDS011;732;51.698;4.886;2023-05-07T03:44:08;28.07;;;22.73;;
1479;SDS011;732;51.698;4.886;2023-05-07T03:46:36;31.67;;;23.00;;
1479;SDS011;732;51.698;4.886;2023-05-07T03:49:07;30.53;;;24.90;;
1479;SDS011;732;51.698;4.886;2023-05-07T03:51:38;25.37;;;21.20;;
1479;SDS011;732;51.698;4.886;2023-05-07T03:54:07;28.40;;;23.53;;
1479;SDS011;732;51.698;4.886;2023-05-07T03:56:41;31.07;;;23.90;;
1479;SDS011;732;51.698;4.886;2023-05-07T03:59:11;33.70;;;27.40;;
1479;SDS011;732;51.698;4.886;2023-05-07T04:01:42;33.43;;;27.57;;
1479;SDS011;732;51.698;4.886;2023-05-07T04:04:15;26.70;;;21.40;;
1479;SDS011;732;51.698;4.886;2023-05-07T04:06:43;29.30;;;23.37;;
1479;SDS011;732;51.698;4.886;2023-05-07T04:09:12;32.83;;;23.87;;
1479;SDS011;732;51.698;4.886;2023-05-07T04:11:40;29.00;;;24.87;;
1479;SDS011;732;51.698;4.886;2023-05-07T04:14:11;26.07;;;22.90;;
1479;SDS011;732;51.698;4.886;2023-05-07T04:16:39;25.30;;;22.60;;
1479;SDS011;732;51.698;4.886;2023-05-07T04:19:11;28.07;;;23.90;;
1479;SDS011;732;51.698;4.886;2023-05-07T04:21:41;30.73;;;25.87;;
1479;SDS011;732;51.698;4.886;2023-05-07T04:24:09;32.63;;;26.00;;
1479;SDS011;732;51.698;4.886;2023-05-07T04:26:37;30.27;;;23.37;;
1479;SDS011;732;51.698;4.886;2023-05-07T04:29:07;33.70;;;25.43;;
1479;SDS011;732;51.698;4.886;2023-05-07T04:31:37;34.17;;;26.77;;
1479;SDS011;732;51.698;4.886;2023-05-07T04:34:06;36.03;;;26.30;;
1479;SDS011;732;51.698;4.886;2023-05-07T04:36:39;33.53;;;25.17;;
1479;SDS011;732;51.698;4.886;2023-05-07T04:39:10;33.57;;;28.10;;
1479;SDS011;732;51.698;4.886;2023-05-07T04:41:42;35.90;;;28.57;;
1479;SDS011;732;51.698;4.886;2023-05-07T04:44:10;33.10;;;25.20;;
1479;SDS011;732;51.698;4.886;2023-05-07T04:46:40;35.80;;;28.23;;
1479;SDS011;732;51.698;4.886;2023-05-07T04:49:09;32.57;;;25.80;;
1479;SDS011;732;51.698;4.886;2023-05-07T04:51:37;36.00;;;29.73;;
1479;SDS011;732;51.698;4.886;2023-05-07T04:54:11;32.30;;;27.33;;
1479;SDS011;732;51.698;4.886;2023-05-07T04:56:39;41.13;;;31.20;;
1479;SDS011;732;51.698;4.886;2023-05-07T04:59:08;31.63;;;27.20;;
1479;SDS011;732;51.698;4.886;2023-05-07T05:01:37;45.87;;;33.80;;
1479;SDS011;732;51.698;4.886;2023-05-07T05:04:07;40.00;;;29.90;;
1479;SDS011;732;51.698;4.886;2023-05-07T05:06:37;40.37;;;30.17;;
1479;SDS011;732;51.698;4.886;2023-05-07T05:09:06;47.13;;;34.57;;
1479;SDS011;732;51.698;4.886;2023-05-07T05:11:39;38.47;;;30.63;;
1479;SDS011;732;51.698;4.886;2023-05-07T05:14:07;35.50;;;29.50;;
1479;SDS011;732;51.698;4.886;2023-05-07T05:16:36;44.63;;;31.03;;
1479;SDS011;732;51.698;4.886;2023-05-07T05:19:05;44.10;;;34.50;;
1479;SDS011;732;51.698;4.886;2023-05-07T05:21:39;36.67;;;30.80;;
1479;SDS011;732;51.698;4.886;2023-05-07T05:24:09;41.43;;;31.77;;
1479;SDS011;732;51.698;4.886;2023-05-07T05:26:38;40.33;;;30.07;;
1479;SDS011;732;51.698;4.886;2023-05-07T05:29:06;42.70;;;32.57;;
1479;SDS011;732;51.698;4.886;2023-05-07T05:31:38;41.17;;;32.30;;
1479;SDS011;732;51.698;4.886;2023-05-07T05:34:08;44.20;;;33.80;;
1479;SDS011;732;51.698;4.886;2023-05-07T05:36:38;45.97;;;35.00;;
1479;SDS011;732;51.698;4.886;2023-05-07T05:39:10;47.73;;;36.40;;
1479;SDS011;732;51.698;4.886;2023-05-07T05:41:41;50.37;;;37.20;;
1479;SDS011;732;51.698;4.886;2023-05-07T05:44:11;60.10;;;39.77;;
1479;SDS011;732;51.698;4.886;2023-05-07T05:46:41;50.73;;;37.47;;
1479;SDS011;732;51.698;4.886;2023-05-07T05:49:11;44.63;;;34.50;;
1479;SDS011;732;51.698;4.886;2023-05-07T05:51:42;47.00;;;35.80;;
1479;SDS011;732;51.698;4.886;2023-05-07T05:54:11;42.80;;;34.70;;
1479;SDS011;732;51.698;4.886;2023-05-07T05:56:40;53.13;;;37.87;;
1479;SDS011;732;51.698;4.886;2023-05-07T05:59:09;55.00;;;37.90;;
1479;SDS011;732;51.698;4.886;2023-05-07T06:01:38;53.43;;;39.50;;
1479;SDS011;732;51.698;4.886;2023-05-07T06:04:06;51.43;;;38.53;;
1479;SDS011;732;51.698;4.886;2023-05-07T06:06:38;46.77;;;35.30;;
1479;SDS011;732;51.698;4.886;2023-05-07T06:09:07;42.20;;;35.40;;
1479;SDS011;732;51.698;4.886;2023-05-07T06:11:41;50.17;;;36.37;;
1479;SDS011;732;51.698;4.886;2023-05-07T06:14:11;41.87;;;33.87;;
1479;SDS011;732;51.698;4.886;2023-05-07T06:16:39;51.00;;;37.23;;
1479;SDS011;732;51.698;4.886;2023-05-07T06:19:08;42.27;;;35.27;;
1479;SDS011;732;51.698;4.886;2023-05-07T06:21:38;46.20;;;34.97;;
1479;SDS011;732;51.698;4.886;2023-05-07T06:24:09;40.73;;;33.53;;
1479;SDS011;732;51.698;4.886;2023-05-07T06:26:38;42.20;;;35.23;;
1479;SDS011;732;51.698;4.886;2023-05-07T06:29:07;42.23;;;33.50;;
1479;SDS011;732;51.698;4.886;2023-05-07T06:31:35;40.47;;;33.37;;
1479;SDS011;732;51.698;4.886;2023-05-07T06:34:07;44.90;;;37.10;;
1479;SDS011;732;51.698;4.886;2023-05-07T06:36:37;46.17;;;36.63;;
1479;SDS011;732;51.698;4.886;2023-05-07T06:39:29;43.83;;;35.57;;
1479;SDS011;732;51.698;4.886;2023-05-07T06:41:58;42.40;;;36.70;;
1479;SDS011;732;51.698;4.886;2023-05-07T06:44:31;42.83;;;35.80;;
1479;SDS011;732;51.698;4.886;2023-05-07T06:47:11;47.27;;;37.20;;
1479;SDS011;732;51.698;4.886;2023-05-07T06:49:43;46.47;;;36.93;;
1479;SDS011;732;51.698;4.886;2023-05-07T06:52:15;43.63;;;34.90;;
1479;SDS011;732;51.698;4.886;2023-05-07T06:54:47;41.83;;;35.47;;
1479;SDS011;732;51.698;4.886;2023-05-07T06:57:17;42.67;;;36.67;;
1479;SDS011;732;51.698;4.886;2023-05-07T06:59:46;45.23;;;36.83;;
1479;SDS011;732;51.698;4.886;2023-05-07T07:02:14;43.60;;;37.30;;
1479;SDS011;732;51.698;4.886;2023-05-07T07:04:45;41.87;;;36.00;;
1479;SDS011;732;51.698;4.886;2023-05-07T07:07:13;42.17;;;36.90;;
1479;SDS011;732;51.698;4.886;2023-05-07T07:09:46;40.97;;;34.87;;
1479;SDS011;732;51.698;4.886;2023-05-07T07:12:17;41.20;;;34.50;;
1479;SDS011;732;51.698;4.886;2023-05-07T07:14:46;39.90;;;35.70;;
1479;SDS011;732;51.698;4.886;2023-05-07T07:17:14;41.23;;;36.80;;
1479;SDS011;732;51.698;4.886;2023-05-07T07:19:43;40.90;;;36.50;;
1479;SDS011;732;51.698;4.886;2023-05-07T07:22:11;41.43;;;35.70;;
1479;SDS011;732;51.698;4.886;2023-05-07T07:24:40;39.40;;;35.10;;
1479;SDS011;732;51.698;4.886;2023-05-07T07:27:12;41.63;;;37.10;;
1479;SDS011;732;51.698;4.886;2023-05-07T07:29:40;44.67;;;37.03;;
1479;SDS011;732;51.698;4.886;2023-05-07T07:32:10;42.03;;;37.53;;
1479;SDS011;732;51.698;4.886;2023-05-07T07:34:38;40.87;;;36.50;;
1479;SDS011;732;51.698;4.886;2023-05-07T07:37:07;40.80;;;36.30;;
1479;SDS011;732;51.698;4.886;2023-05-07T07:39:37;41.40;;;34.67;;
1479;SDS011;732;51.698;4.886;2023-05-07T07:42:07;42.33;;;36.63;;
1479;SDS011;732;51.698;4.886;2023-05-07T07:44:39;39.13;;;34.83;;
1479;SDS011;732;51.698;4.886;2023-05-07T07:47:09;43.13;;;37.77;;
1479;SDS011;732;51.698;4.886;2023-05-07T07:49:38;39.87;;;35.73;;
1479;SDS011;732;51.698;4.886;2023-05-07T07:52:11;38.53;;;34.43;;
1479;SDS011;732;51.698;4.886;2023-05-07T07:54:41;39.40;;;35.10;;
1479;SDS011;732;51.698;4.886;2023-05-07T07:57:09;40.00;;;35.70;;
1479;SDS011;732;51.698;4.886;2023-05-07T07:59:40;40.30;;;35.73;;
1479;SDS011;732;51.698;4.886;2023-05-07T08:02:11;40.10;;;35.50;;
1479;SDS011;732;51.698;4.886;2023-05-07T08:04:39;39.37;;;35.10;;
1479;SDS011;732;51.698;4.886;2023-05-07T08:07:09;40.33;;;35.37;;
1479;SDS011;732;51.698;4.886;2023-05-07T08:09:41;38.30;;;33.20;;
1479;SDS011;732;51.698;4.886;2023-05-07T08:12:12;38.90;;;34.80;;
1479;SDS011;732;51.698;4.886;2023-05-07T08:14:41;39.33;;;34.83;;
1479;SDS011;732;51.698;4.886;2023-05-07T08:17:09;46.97;;;39.93;;
1479;SDS011;732;51.698;4.886;2023-05-07T08:19:38;41.73;;;35.70;;
1479;SDS011;732;51.698;4.886;2023-05-07T08:22:10;38.47;;;34.50;;
1479;SDS011;732;51.698;4.886;2023-05-07T08:24:39;38.63;;;34.57;;
1479;SDS011;732;51.698;4.886;2023-05-07T08:27:08;39.13;;;34.93;;
1479;SDS011;732;51.698;4.886;2023-05-07T08:29:40;37.03;;;33.23;;
1479;SDS011;732;51.698;4.886;2023-05-07T08:32:08;39.03;;;34.30;;
1479;SDS011;732;51.698;4.886;2023-05-07T08:34:36;37.07;;;33.17;;
1479;SDS011;732;51.698;4.886;2023-05-07T08:37:06;39.30;;;34.00;;
1479;SDS011;732;51.698;4.886;2023-05-07T08:39:34;37.70;;;33.70;;
1479;SDS011;732;51.698;4.886;2023-05-07T08:42:07;34.70;;;31.23;;
1479;SDS011;732;51.698;4.886;2023-05-07T08:44:38;36.73;;;32.87;;
1479;SDS011;732;51.698;4.886;2023-05-07T08:47:14;35.17;;;31.47;;
1479;SDS011;732;51.698;4.886;2023-05-07T08:49:44;35.87;;;32.03;;
1479;SDS011;732;51.698;4.886;2023-05-07T08:52:13;33.10;;;29.77;;
1479;SDS011;732;51.698;4.886;2023-05-07T08:54:41;38.33;;;33.63;;
1479;SDS011;732;51.698;4.886;2023-05-07T08:57:10;34.40;;;30.90;;
1479;SDS011;732;51.698;4.886;2023-05-07T08:59:41;33.70;;;30.43;;
1479;SDS011;732;51.698;4.886;2023-05-07T09:02:10;33.70;;;29.60;;
1479;SDS011;732;51.698;4.886;2023-05-07T09:04:39;34.60;;;31.03;;
1479;SDS011;732;51.698;4.886;2023-05-07T09:07:09;31.37;;;27.93;;
1479;SDS011;732;51.698;4.886;2023-05-07T09:09:43;30.70;;;27.70;;
1479;SDS011;732;51.698;4.886;2023-05-07T09:12:13;32.53;;;29.17;;
1479;SDS011;732;51.698;4.886;2023-05-07T09:14:48;34.37;;;30.80;;
1479;SDS011;732;51.698;4.886;2023-05-07T09:17:17;30.90;;;27.70;;
1479;SDS011;732;51.698;4.886;2023-05-07T09:19:45;29.60;;;26.63;;
1479;SDS011;732;51.698;4.886;2023-05-07T09:22:15;31.53;;;28.33;;
1479;SDS011;732;51.698;4.886;2023-05-07T09:24:53;33.77;;;29.90;;
1479;SDS011;732;51.698;4.886;2023-05-07T09:27:25;30.90;;;27.80;;
1479;SDS011;732;51.698;4.886;2023-05-07T09:29:56;30.30;;;27.30;;
1479;SDS011;732;51.698;4.886;2023-05-07T09:32:25;29.60;;;26.70;;
1479;SDS011;732;51.698;4.886;2023-05-07T09:34:54;28.47;;;25.80;;
1479;SDS011;732;51.698;4.886;2023-05-07T09:37:27;27.70;;;24.90;;
1479;SDS011;732;51.698;4.886;2023-05-07T09:39:56;28.67;;;25.60;;
1479;SDS011;732;51.698;4.886;2023-05-07T09:42:28;28.20;;;25.43;;
1479;SDS011;732;51.698;4.886;2023-05-07T09:45:02;27.23;;;24.53;;
1479;SDS011;732;51.698;4.886;2023-05-07T09:47:38;28.93;;;25.63;;
1479;SDS011;732;51.698;4.886;2023-05-07T09:50:11;26.80;;;24.00;;
1479;SDS011;732;51.698;4.886;2023-05-07T09:52:43;29.30;;;26.17;;
1479;SDS011;732;51.698;4.886;2023-05-07T09:55:16;27.53;;;23.97;;
1479;SDS011;732;51.698;4.886;2023-05-07T09:57:45;25.33;;;22.83;;
1479;SDS011;732;51.698;4.886;2023-05-07T10:00:16;27.37;;;24.50;;
1479;SDS011;732;51.698;4.886;2023-05-07T10:02:46;27.10;;;24.37;;
1479;SDS011;732;51.698;4.886;2023-05-07T10:05:24;24.97;;;22.40;;
1479;SDS011;732;51.698;4.886;2023-05-07T10:07:58;25.17;;;22.57;;
1479;SDS011;732;51.698;4.886;2023-05-07T10:10:32;24.97;;;22.47;;
1479;SDS011;732;51.698;4.886;2023-05-07T10:13:04;25.70;;;23.00;;
1479;SDS011;732;51.698;4.886;2023-05-07T10:15:45;23.80;;;21.40;;
1479;SDS011;732;51.698;4.886;2023-05-07T10:18:19;23.23;;;20.67;;
1479;SDS011;732;51.698;4.886;2023-05-07T10:20:51;21.70;;;19.70;;
1479;SDS011;732;51.698;4.886;2023-05-07T10:23:29;21.60;;;19.30;;
1479;SDS011;732;51.698;4.886;2023-05-07T10:25:59;19.90;;;17.93;;
1479;SDS011;732;51.698;4.886;2023-05-07T10:28:33;21.63;;;18.67;;
1479;SDS011;732;51.698;4.886;2023-05-07T10:31:13;20.90;;;18.70;;
1479;SDS011;732;51.698;4.886;2023-05-07T10:33:58;18.30;;;16.50;;
1479;SDS011;732;51.698;4.886;2023-05-07T10:36:37;16.53;;;14.93;;
1479;SDS011;732;51.698;4.886;2023-05-07T10:39:09;16.30;;;14.60;;
1479;SDS011;732;51.698;4.886;2023-05-07T10:41:39;16.73;;;13.83;;
1479;SDS011;732;51.698;4.886;2023-05-07T10:44:08;16.13;;;14.50;;
1479;SDS011;732;51.698;4.886;2023-05-07T10:46:39;17.13;;;15.40;;
1479;SDS011;732;51.698;4.886;2023-05-07T10:49:18;19.27;;;15.47;;
1479;SDS011;732;51.698;4.886;2023-05-07T10:52:16;17.13;;;15.43;;
1479;SDS011;732;51.698;4.886;2023-05-07T10:55:19;16.90;;;15.30;;
1479;SDS011;732;51.698;4.886;2023-05-07T10:58:14;19.47;;;17.67;;
1479;SDS011;732;51.698;4.886;2023-05-07T11:01:28;18.87;;;16.87;;
1479;SDS011;732;51.698;4.886;2023-05-07T11:04:45;18.63;;;16.90;;
1479;SDS011;732;51.698;4.886;2023-05-07T11:07:34;19.77;;;17.83;;
1479;SDS011;732;51.698;4.886;2023-05-07T11:10:11;21.03;;;18.83;;
1479;SDS011;732;51.698;4.886;2023-05-07T11:13:02;20.83;;;18.60;;
1479;SDS011;732;51.698;4.886;2023-05-07T11:15:42;20.43;;;18.30;;
1479;SDS011;732;51.698;4.886;2023-05-07T11:18:21;20.93;;;18.83;;
1479;SDS011;732;51.698;4.886;2023-05-07T11:20:52;22.30;;;20.03;;
1479;SDS011;732;51.698;4.886;2023-05-07T11:23:56;22.33;;;20.10;;
1479;SDS011;732;51.698;4.886;2023-05-07T11:26:42;23.03;;;20.63;;
1479;SDS011;732;51.698;4.886;2023-05-07T11:29:14;24.80;;;22.03;;
1479;SDS011;732;51.698;4.886;2023-05-07T11:31:50;22.57;;;20.23;;
1479;SDS011;732;51.698;4.886;2023-05-07T11:34:22;23.80;;;21.40;;
1479;SDS011;732;51.698;4.886;2023-05-07T11:36:55;27.47;;;24.50;;
1479;SDS011;732;51.698;4.886;2023-05-07T11:40:01;26.83;;;24.13;;
1479;SDS011;732;51.698;4.886;2023-05-07T11:42:33;27.10;;;24.30;;
1479;SDS011;732;51.698;4.886;2023-05-07T11:45:04;29.80;;;26.63;;
1479;SDS011;732;51.698;4.886;2023-05-07T11:47:35;30.30;;;27.20;;
1479;SDS011;732;51.698;4.886;2023-05-07T11:50:08;28.87;;;25.77;;
1479;SDS011;732;51.698;4.886;2023-05-07T11:52:37;29.47;;;26.33;;
1479;SDS011;732;51.698;4.886;2023-05-07T11:55:06;28.17;;;25.37;;
1479;SDS011;732;51.698;4.886;2023-05-07T11:57:36;28.10;;;25.30;;
1479;SDS011;732;51.698;4.886;2023-05-07T12:00:05;30.77;;;26.20;;
1479;SDS011;732;51.698;4.886;2023-05-07T12:02:39;33.47;;;29.97;;
1479;SDS011;732;51.698;4.886;2023-05-07T12:05:10;30.67;;;27.47;;
1479;SDS011;732;51.698;4.886;2023-05-07T12:07:38;28.90;;;24.03;;
1479;SDS011;732;51.698;4.886;2023-05-07T12:10:07;47.70;;;29.63;;
1479;SDS011;732;51.698;4.886;2023-05-07T12:12:40;77.90;;;38.07;;
1479;SDS011;732;51.698;4.886;2023-05-07T12:15:09;57.63;;;39.07;;
1479;SDS011;732;51.698;4.886;2023-05-07T12:17:38;49.90;;;38.77;;
1479;SDS011;732;51.698;4.886;2023-05-07T12:20:10;49.80;;;40.73;;
1479;SDS011;732;51.698;4.886;2023-05-07T12:22:38;54.30;;;42.70;;
1479;SDS011;732;51.698;4.886;2023-05-07T12:25:07;58.43;;;45.97;;
1479;SDS011;732;51.698;4.886;2023-05-07T12:27:37;60.90;;;47.07;;
1479;SDS011;732;51.698;4.886;2023-05-07T12:30:08;80.63;;;54.70;;
1479;SDS011;732;51.698;4.886;2023-05-07T12:32:39;82.27;;;57.53;;
1479;SDS011;732;51.698;4.886;2023-05-07T12:35:07;84.70;;;58.40;;
1479;SDS011;732;51.698;4.886;2023-05-07T12:37:38;90.10;;;60.23;;
1479;SDS011;732;51.698;4.886;2023-05-07T12:40:06;50.73;;;42.33;;
1479;SDS011;732;51.698;4.886;2023-05-07T12:42:38;39.17;;;34.40;;
1479;SDS011;732;51.698;4.886;2023-05-07T12:45:09;48.23;;;35.30;;
1479;SDS011;732;51.698;4.886;2023-05-07T12:47:38;42.70;;;34.43;;
1479;SDS011;732;51.698;4.886;2023-05-07T12:50:07;48.03;;;36.60;;
1479;SDS011;732;51.698;4.886;2023-05-07T12:52:38;58.90;;;47.17;;
1479;SDS011;732;51.698;4.886;2023-05-07T12:55:08;60.63;;;46.90;;
1479;SDS011;732;51.698;4.886;2023-05-07T12:57:39;54.97;;;43.17;;
1479;SDS011;732;51.698;4.886;2023-05-07T13:00:10;54.53;;;43.83;;
1479;SDS011;732;51.698;4.886;2023-05-07T13:02:40;44.60;;;38.20;;
1479;SDS011;732;51.698;4.886;2023-05-07T13:05:12;51.90;;;42.17;;
1479;SDS011;732;51.698;4.886;2023-05-07T13:07:40;63.03;;;46.43;;
1479;SDS011;732;51.698;4.886;2023-05-07T13:10:22;49.53;;;40.57;;
1479;SDS011;732;51.698;4.886;2023-05-07T13:12:51;59.60;;;46.20;;
1479;SDS011;732;51.698;4.886;2023-05-07T13:15:21;52.97;;;44.03;;
1479;SDS011;732;51.698;4.886;2023-05-07T13:17:49;47.17;;;40.43;;
1479;SDS011;732;51.698;4.886;2023-05-07T13:20:19;58.63;;;42.97;;
1479;SDS011;732;51.698;4.886;2023-05-07T13:22:47;52.63;;;40.83;;
1479;SDS011;732;51.698;4.886;2023-05-07T13:25:17;49.90;;;41.10;;
1479;SDS011;732;51.698;4.886;2023-05-07T13:27:48;45.70;;;37.90;;
1479;SDS011;732;51.698;4.886;2023-05-07T13:30:35;48.80;;;37.20;;
1479;SDS011;732;51.698;4.886;2023-05-07T13:33:03;45.60;;;37.23;;
1479;SDS011;732;51.698;4.886;2023-05-07T13:35:33;41.47;;;33.40;;
1479;SDS011;732;51.698;4.886;2023-05-07T13:38:02;44.20;;;36.37;;
1479;SDS011;732;51.698;4.886;2023-05-07T13:40:30;39.07;;;31.40;;
1479;SDS011;732;51.698;4.886;2023-05-07T13:42:58;34.47;;;28.97;;
1479;SDS011;732;51.698;4.886;2023-05-07T13:45:28;33.03;;;27.60;;
1479;SDS011;732;51.698;4.886;2023-05-07T13:47:57;30.20;;;24.67;;
1479;SDS011;732;51.698;4.886;2023-05-07T13:50:25;32.90;;;29.13;;
1479;SDS011;732;51.698;4.886;2023-05-07T13:52:58;28.70;;;25.70;;
1479;SDS011;732;51.698;4.886;2023-05-07T13:55:28;26.83;;;24.07;;
1479;SDS011;732;51.698;4.886;2023-05-07T13:58:00;26.63;;;23.47;;
1479;SDS011;732;51.698;4.886;2023-05-07T14:00:32;26.60;;;23.33;;
1479;SDS011;732;51.698;4.886;2023-05-07T14:03:01;28.77;;;22.63;;
1479;SDS011;732;51.698;4.886;2023-05-07T14:05:30;32.97;;;24.83;;
1479;SDS011;732;51.698;4.886;2023-05-07T14:08:00;25.57;;;22.60;;
1479;SDS011;732;51.698;4.886;2023-05-07T14:10:29;28.13;;;22.40;;
1479;SDS011;732;51.698;4.886;2023-05-07T14:13:00;29.10;;;21.20;;
1479;SDS011;732;51.698;4.886;2023-05-07T14:15:29;29.43;;;22.87;;
1479;SDS011;732;51.698;4.886;2023-05-07T14:17:58;27.70;;;21.70;;
1479;SDS011;732;51.698;4.886;2023-05-07T14:20:27;22.07;;;19.47;;
1479;SDS011;732;51.698;4.886;2023-05-07T14:22:57;21.17;;;19.03;;
1479;SDS011;732;51.698;4.886;2023-05-07T14:25:26;19.70;;;15.50;;
1479;SDS011;732;51.698;4.886;2023-05-07T14:27:55;16.57;;;14.63;;
1479;SDS011;732;51.698;4.886;2023-05-07T14:30:23;17.50;;;15.03;;
1479;SDS011;732;51.698;4.886;2023-05-07T14:32:51;16.80;;;15.10;;
1479;SDS011;732;51.698;4.886;2023-05-07T14:35:19;13.83;;;12.33;;
1479;SDS011;732;51.698;4.886;2023-05-07T14:37:48;15.10;;;12.70;;
1479;SDS011;732;51.698;4.886;2023-05-07T14:40:16;15.90;;;13.83;;
1479;SDS011;732;51.698;4.886;2023-05-07T14:42:46;15.00;;;13.23;;
1479;SDS011;732;51.698;4.886;2023-05-07T14:45:14;15.70;;;12.80;;
1479;SDS011;732;51.698;4.886;2023-05-07T14:47:42;16.07;;;12.57;;
1479;SDS011;732;51.698;4.886;2023-05-07T14:50:11;13.63;;;10.90;;
1479;SDS011;732;51.698;4.886;2023-05-07T14:52:39;10.70;;;9.07;;
1479;SDS011;732;51.698;4.886;2023-05-07T14:55:10;11.00;;;7.30;;
1479;SDS011;732;51.698;4.886;2023-05-07T14:57:39;8.80;;;7.00;;
1479;SDS011;732;51.698;4.886;2023-05-07T15:00:10;11.10;;;7.30;;
1479;SDS011;732;51.698;4.886;2023-05-07T15:02:40;12.03;;;8.30;;
1479;SDS011;732;51.698;4.886;2023-05-07T15:05:10;10.83;;;8.13;;
1479;SDS011;732;51.698;4.886;2023-05-07T15:07:39;10.17;;;9.03;;
1479;SDS011;732;51.698;4.886;2023-05-07T15:10:07;11.77;;;9.27;;
1479;SDS011;732;51.698;4.886;2023-05-07T15:12:36;12.53;;;9.50;;
1479;SDS011;732;51.698;4.886;2023-05-07T15:15:05;19.93;;;15.43;;
1479;SDS011;732;51.698;4.886;2023-05-07T15:17:38;16.77;;;15.17;;
1479;SDS011;732;51.698;4.886;2023-05-07T15:20:08;17.70;;;15.77;;
1479;SDS011;732;51.698;4.886;2023-05-07T15:22:38;17.33;;;15.27;;
1479;SDS011;732;51.698;4.886;2023-05-07T15:25:08;21.53;;;16.70;;
1479;SDS011;732;51.698;4.886;2023-05-07T15:27:36;16.87;;;15.10;;